| time (UTC) | temp F | wind direction | speed MPH | gust MPH | rain 1hr in | rain 24hr in | rain mn in | humidity % | barometer mb |
| 20260901234017 | 63 | 0.0 | 0.0 | 0.00 | 0.42 | 0.42 | 94 | 1018.4 | |
| 20260901233057 | 63 | 0.0 | 0.0 | 0.00 | 0.42 | 0.42 | 94 | 1018.5 | |
| 20260901232017 | 63 | 0.0 | 0.0 | 0.00 | 0.42 | 0.42 | 94 | 1018.5 | |
| 20260901231017 | 63 | 0.0 | 0.0 | 0.00 | 0.42 | 0.42 | 94 | 1018.4 | |
| 20260901230017 | 63 | 0.0 | 0.0 | 0.00 | 0.42 | 0.42 | 94 | 1018.3 | |
| 20260901225017 | 63 | 0.0 | 1.0 | 0.00 | 0.42 | 0.42 | 94 | 1018.3 | |
| 20260901224017 | 63 | 0.0 | 1.0 | 0.00 | 0.42 | 0.42 | 94 | 1018.2 | |
| 20260901223017 | 63 | 0.0 | 2.0 | 0.00 | 0.42 | 0.42 | 94 | 1018.2 | |
| 20260901222017 | 63 | 0.0 | 3.0 | 0.00 | 0.42 | 0.42 | 94 | 1018.3 | |
| 20260901221017 | 63 | 0.0 | 3.0 | 0.00 | 0.42 | 0.42 | 94 | 1018.3 | |
| 20260901220017 | 63 | 0.0 | 2.0 | 0.00 | 0.42 | 0.42 | 94 | 1018.2 | |
| 20260901215017 | 63 | 0.0 | 3.0 | 0.00 | 0.42 | 0.42 | 94 | 1018.2 | |
| 20260901214017 | 63 | 180 | 1.0 | 4.0 | 0.00 | 0.42 | 0.42 | 94 | 1018.0 |
| 20260901213037 | 63 | 180 | 1.0 | 4.0 | 0.00 | 0.42 | 0.42 | 93 | 1018.0 |
| 20260901212017 | 63 | 158 | 1.0 | 4.0 | 0.00 | 0.42 | 0.42 | 94 | 1018.0 |
| 20260901211017 | 63 | 180 | 1.0 | 5.0 | 0.00 | 0.42 | 0.42 | 94 | 1017.9 |
| 20260901210038 | 63 | 158 | 3.0 | 6.0 | 0.00 | 0.42 | 0.42 | 94 | 1017.9 |
| 20260901205016 | 64 | 180 | 2.0 | 7.0 | 0.00 | 0.42 | 0.42 | 94 | 1017.8 |
| 20260901204017 | 64 | 158 | 2.0 | 6.0 | 0.01 | 0.42 | 0.42 | 94 | 1017.6 |
| 20260901203017 | 64 | 158 | 2.0 | 5.0 | 0.01 | 0.42 | 0.42 | 94 | 1017.6 |
| 20260901202017 | 64 | 158 | 3.0 | 9.0 | 0.01 | 0.42 | 0.42 | 94 | 1017.6 |
| 20260901201137 | 66 | 158 | 1.0 | 9.0 | 0.03 | 0.42 | 0.42 | 95 | 1017.3 |
| 20260901200017 | 66 | 68 | 1.0 | 3.0 | 0.04 | 0.42 | 0.42 | 95 | 1017.3 |
| 20260901195017 | 66 | 0.0 | 3.0 | 0.07 | 0.42 | 0.42 | 95 | 1017.3 | |
| 20260901194037 | 66 | 0.0 | 3.0 | 0.13 | 0.41 | 0.41 | 95 | 1017.3 | |
| 20260901193117 | 66 | 0.0 | 3.0 | 0.20 | 0.41 | 0.41 | 95 | 1017.2 | |
| 20260901192017 | 65 | 68 | 1.0 | 2.0 | 0.21 | 0.41 | 0.41 | 95 | 1017.3 |
| 20260901191017 | 65 | 0.0 | 2.0 | 0.19 | 0.39 | 0.39 | 95 | 1017.4 | |
| 20260901190017 | 65 | 0.0 | 3.0 | 0.19 | 0.38 | 0.38 | 95 | 1017.4 | |
| 20260901185017 | 65 | 0.0 | 2.0 | 0.16 | 0.35 | 0.35 | 95 | 1017.4 | |
| 20260901184017 | 65 | 45 | 1.0 | 4.0 | 0.09 | 0.28 | 0.28 | 94 | 1017.5 |
| 20260901183017 | 65 | 45 | 1.0 | 4.0 | 0.02 | 0.21 | 0.21 | 94 | 1017.4 |
| 20260901182036 | 66 | 45 | 1.0 | 3.0 | 0.03 | 0.20 | 0.20 | 94 | 1017.4 |
| 20260901181016 | 66 | 0.0 | 3.0 | 0.04 | 0.20 | 0.20 | 94 | 1017.3 | |
| 20260901180016 | 66 | 0.0 | 3.0 | 0.04 | 0.19 | 0.20 | 94 | 1017.0 | |
| 20260901175016 | 66 | 23 | 1.0 | 4.0 | 0.05 | 0.19 | 0.19 | 94 | 1017.0 |
| 20260901174036 | 66 | 113 | 1.0 | 4.0 | 0.05 | 0.19 | 0.19 | 94 | 1016.9 |
| 20260901173036 | 66 | 68 | 1.0 | 3.0 | 0.05 | 0.19 | 0.19 | 94 | 1016.9 |
| 20260901172016 | 66 | 45 | 1.0 | 7.0 | 0.03 | 0.17 | 0.17 | 94 | 1017.1 |
| 20260901171016 | 66 | 0.0 | 3.0 | 0.02 | 0.16 | 0.16 | 94 | 1017.0 | |
| 20260901170016 | 66 | 0.0 | 3.0 | 0.01 | 0.15 | 0.15 | 94 | 1017.1 | |
| 20260901165016 | 66 | 0.0 | 4.0 | 0.00 | 0.14 | 0.14 | 93 | 1017.2 | |
| 20260901164016 | 66 | 0 | 1.0 | 6.0 | 0.00 | 0.14 | 0.14 | 93 | 1017.3 |
| 20260901163016 | 66 | 45 | 1.0 | 5.0 | 0.00 | 0.14 | 0.14 | 93 | 1017.3 |
| 20260901162016 | 67 | 0 | 1.0 | 4.0 | 0.00 | 0.14 | 0.14 | 93 | 1017.3 |
| 20260901161016 | 67 | 45 | 1.0 | 5.0 | 0.00 | 0.14 | 0.14 | 94 | 1017.2 |
| 20260901160016 | 67 | 293 | 1.0 | 5.0 | 0.00 | 0.14 | 0.14 | 94 | 1017.1 |
| 20260901155016 | 67 | 0.0 | 1.0 | 0.00 | 0.14 | 0.14 | 94 | 1017.0 | |
| 20260901154016 | 67 | 0.0 | 4.0 | 0.00 | 0.14 | 0.14 | 94 | 1017.1 | |
| 20260901153017 | 67 | 113 | 1.0 | 3.0 | 0.00 | 0.14 | 0.14 | 93 | 1017.1 |
| 20260901152017 | 67 | 113 | 1.0 | 3.0 | 0.00 | 0.14 | 0.14 | 94 | 1017.3 |
| 20260901151016 | 67 | 0.0 | 1.0 | 0.00 | 0.14 | 0.14 | 94 | 1017.4 | |
| 20260901150016 | 67 | 0.0 | 2.0 | 0.00 | 0.14 | 0.14 | 95 | 1017.2 | |
| 20260901145036 | 66 | 135 | 1.0 | 3.0 | 0.00 | 0.14 | 0.14 | 94 | 1017.1 |
| 20260901144016 | 66 | 0.0 | 1.0 | 0.00 | 0.14 | 0.14 | 95 | 1017.2 | |
| 20260901143056 | 65 | 135 | 1.0 | 2.0 | 0.01 | 0.14 | 0.14 | 94 | 1017.2 |
| 20260901142016 | 65 | 135 | 1.0 | 6.0 | 0.01 | 0.14 | 0.14 | 95 | 1017.2 |
| 20260901141016 | 65 | 45 | 1.0 | 4.0 | 0.01 | 0.14 | 0.14 | 95 | 1017.1 |
| 20260901140036 | 65 | 23 | 1.0 | 5.0 | 0.02 | 0.14 | 0.14 | 94 | 1017.2 |
| 20260901135036 | 66 | 338 | 1.0 | 5.0 | 0.03 | 0.14 | 0.14 | 95 | 1017.3 |
| 20260901134036 | 66 | 23 | 1.0 | 6.0 | 0.05 | 0.14 | 0.14 | 95 | 1017.5 |
| 20260901133016 | 66 | 23 | 1.0 | 5.0 | 0.08 | 0.13 | 0.13 | 95 | 1017.5 |
| 20260901132016 | 66 | 23 | 2.0 | 4.0 | 0.10 | 0.13 | 0.13 | 95 | 1017.6 |
| 20260901131016 | 66 | 0 | 1.0 | 5.0 | 0.11 | 0.13 | 0.13 | 94 | 1017.6 |
| 20260901130016 | 66 | 0.0 | 3.0 | 0.10 | 0.12 | 0.12 | 94 | 1017.4 | |
| 20260901125036 | 66 | 23 | 1.0 | 3.0 | 0.09 | 0.11 | 0.11 | 94 | 1017.4 |
| 20260901124016 | 66 | 23 | 1.0 | 3.0 | 0.07 | 0.09 | 0.09 | 94 | 1017.7 |
| 20260901123016 | 66 | 270 | 1.0 | 2.0 | 0.03 | 0.05 | 0.05 | 94 | 1017.7 |
| 20260901122016 | 66 | 0.0 | 1.0 | 0.01 | 0.03 | 0.03 | 94 | 1017.6 | |
| 20260901121016 | 66 | 0.0 | 1.0 | 0.00 | 0.02 | 0.02 | 94 | 1017.6 | |
| 20260901120016 | 66 | 0.0 | 1.0 | 0.00 | 0.02 | 0.02 | 94 | 1017.6 | |
| 20260901115036 | 66 | 0.0 | 1.0 | 0.00 | 0.02 | 0.02 | 94 | 1017.6 | |
| 20260901114016 | 66 | 0.0 | 2.0 | 0.00 | 0.02 | 0.02 | 93 | 1017.7 | |
| 20260901113036 | 66 | 0.0 | 1.0 | 0.00 | 0.02 | 0.02 | 93 | 1017.6 | |
| 20260901112016 | 66 | 0.0 | 0.0 | 0.00 | 0.02 | 0.02 | 93 | 1017.5 | |
| 20260901111036 | 66 | 0.0 | 1.0 | 0.01 | 0.02 | 0.02 | 93 | 1017.4 | |
| 20260901110016 | 65 | 0.0 | 1.0 | 0.01 | 0.02 | 0.02 | 93 | 1017.3 | |
| 20260901105016 | 65 | 0.0 | 0.0 | 0.01 | 0.02 | 0.02 | 93 | 1017.2 | |
| 20260901104016 | 65 | 0.0 | 1.0 | 0.02 | 0.02 | 0.02 | 92 | 1017.0 | |
| 20260901103036 | 65 | 0.0 | 2.0 | 0.02 | 0.02 | 0.02 | 92 | 1016.9 | |
| 20260901102016 | 65 | 0.0 | 3.0 | 0.02 | 0.02 | 0.02 | 91 | 1016.8 | |
| 20260901101016 | 66 | 0.0 | 2.0 | 0.01 | 0.01 | 0.01 | 91 | 1016.8 | |
| 20260901100016 | 66 | 0.0 | 2.0 | 0.01 | 0.01 | 0.01 | 90 | 1016.8 | |
| 20260901095016 | 66 | 225 | 1.0 | 4.0 | 0.01 | 0.01 | 0.01 | 88 | 1016.8 |
| 20260901094036 | 66 | 180 | 1.0 | 5.0 | 0.00 | 0.00 | 0.00 | 87 | 1016.8 |
| 20260901093016 | 66 | 0.0 | 3.0 | 0.00 | 0.00 | 0.00 | 86 | 1016.9 | |
| 20260901092016 | 66 | 0.0 | 2.0 | 0.00 | 0.00 | 0.00 | 85 | 1016.8 | |
| 20260901091016 | 66 | 180 | 1.0 | 3.0 | 0.00 | 0.00 | 0.00 | 85 | 1016.8 |
| 20260901090016 | 66 | 180 | 1.0 | 4.0 | 0.00 | 0.00 | 0.00 | 84 | 1016.8 |
| 20260901085016 | 66 | 180 | 2.0 | 6.0 | 0.00 | 0.00 | 0.00 | 84 | 1016.8 |
| 20260901084016 | 67 | 158 | 3.0 | 6.0 | 0.00 | 0.00 | 0.00 | 83 | 1016.7 |
| 20260901083015 | 67 | 180 | 2.0 | 5.0 | 0.00 | 0.00 | 0.00 | 83 | 1016.8 |
| 20260901082015 | 67 | 158 | 2.0 | 6.0 | 0.00 | 0.00 | 0.00 | 82 | 1016.8 |
| 20260901081016 | 67 | 158 | 2.0 | 5.0 | 0.00 | 0.00 | 0.00 | 81 | 1016.8 |
| 20260901080016 | 67 | 180 | 2.0 | 5.0 | 0.00 | 0.00 | 0.00 | 81 | 1016.9 |
| 20260901075035 | 67 | 180 | 1.0 | 3.0 | 0.00 | 0.00 | 0.00 | 80 | 1017.1 |
| 20260901074016 | 68 | 180 | 1.0 | 4.0 | 0.00 | 0.00 | 0.00 | 80 | 1017.2 |
| 20260901073015 | 68 | 0.0 | 3.0 | 0.00 | 0.00 | 0.00 | 79 | 1017.2 | |
| 20260901072035 | 68 | 0.0 | 5.0 | 0.00 | 0.00 | 0.00 | 79 | 1017.2 | |
| 20260901071016 | 68 | 0.0 | 1.0 | 0.00 | 0.00 | 0.00 | 78 | 1017.3 | |
| 20260901070015 | 68 | 0.0 | 0.0 | 0.00 | 0.00 | 0.00 | 78 | 1017.3 | |
| 20260901065015 | 68 | 203 | 1.0 | 4.0 | 0.00 | 0.00 | 0.00 | 78 | 1017.4 |
| 20260901064015 | 68 | 203 | 1.0 | 3.0 | 0.00 | 0.00 | 0.00 | 78 | 1017.3 |
| 20260901063015 | 68 | 0.0 | 0.0 | 0.00 | 0.00 | 0.00 | 77 | 1017.3 | |
| 20260901062015 | 68 | 0.0 | 2.0 | 0.00 | 0.00 | 0.00 | 77 | 1017.4 | |
| 20260901061035 | 68 | 0.0 | 0.0 | 0.00 | 0.00 | 0.00 | 77 | 1017.6 | |
| 20260901060015 | 68 | 0.0 | 1.0 | 0.00 | 0.00 | 0.00 | 77 | 1017.6 | |
| 20260901055015 | 68 | 158 | 1.0 | 4.0 | 0.00 | 0.00 | 0.00 | 76 | 1017.5 |
| 20260901054017 | 68 | 203 | 1.0 | 3.0 | 0.00 | 0.00 | 0.00 | 76 | 1017.5 |
| 20260901053016 | 68 | 203 | 1.0 | 5.0 | 0.00 | 0.00 | 0.00 | 76 | 1017.6 |
| 20260901052017 | 68 | 0.0 | 4.0 | 0.00 | 0.00 | 0.00 | 76 | 1017.6 | |
| 20260901051017 | 68 | 203 | 1.0 | 3.0 | 0.00 | 0.00 | 0.00 | 76 | 1017.4 |
| 20260901050017 | 68 | 180 | 1.0 | 5.0 | 0.00 | 0.00 | 0.00 | 77 | 1017.5 |
| 20260901045017 | 68 | 203 | 1.0 | 5.0 | 0.00 | 0.00 | 0.00 | 78 | 1017.6 |
| 20260901044017 | 68 | 180 | 1.0 | 3.0 | 0.00 | 0.00 | 0.00 | 79 | 1017.6 |
| 20260901043017 | 68 | 180 | 2.0 | 5.0 | 0.00 | 0.00 | 0.00 | 80 | 1017.7 |
| 20260901042017 | 69 | 158 | 1.0 | 6.0 | 0.00 | 0.00 | 0.00 | 81 | 1017.6 |
| 20260901041017 | 69 | 158 | 2.0 | 7.0 | 0.00 | 0.00 | 0.00 | 81 | 1017.6 |
| 20260901040017 | 69 | 158 | 2.0 | 5.0 | 0.00 | 0.00 | 0.00 | 82 | 1017.5 |
| 20260901035035 | 69 | 158 | 2.0 | 5.0 | 0.00 | 0.00 | 0.00 | 82 | 1017.6 |
| 20260901034016 | 69 | 0.0 | 2.0 | 0.00 | 0.00 | 0.00 | 82 | 1017.7 | |
| 20260901033016 | 69 | 158 | 1.0 | 3.0 | 0.00 | 0.00 | 0.00 | 82 | 1017.7 |
| 20260901032015 | 69 | 158 | 1.0 | 4.0 | 0.00 | 0.00 | 0.00 | 82 | 1017.7 |
| 20260901031015 | 69 | 158 | 1.0 | 4.0 | 0.00 | 0.00 | 0.00 | 81 | 1017.6 |
| 20260901030015 | 69 | 158 | 2.0 | 6.0 | 0.00 | 0.00 | 0.00 | 81 | 1017.5 |
| 20260901025015 | 69 | 158 | 2.0 | 5.0 | 0.00 | 0.00 | 0.00 | 80 | 1017.4 |
| 20260901024016 | 69 | 180 | 2.0 | 6.0 | 0.00 | 0.00 | 0.00 | 79 | 1017.5 |
| 20260901023016 | 69 | 158 | 2.0 | 6.0 | 0.00 | 0.00 | 0.00 | 78 | 1017.5 |
| 20260901022015 | 69 | 180 | 2.0 | 5.0 | 0.00 | 0.00 | 0.00 | 76 | 1017.4 |
| 20260901021015 | 69 | 158 | 3.0 | 6.0 | 0.00 | 0.00 | 0.00 | 74 | 1017.5 |
| 20260901020015 | 70 | 158 | 2.0 | 5.0 | 0.00 | 0.00 | 0.00 | 73 | 1017.5 |
| 20260901015015 | 70 | 158 | 2.0 | 5.0 | 0.00 | 0.00 | 0.00 | 72 | 1017.6 |
| 20260901014035 | 70 | 158 | 2.0 | 4.0 | 0.00 | 0.00 | 0.00 | 71 | 1017.6 |
| 20260901013015 | 70 | 158 | 1.0 | 3.0 | 0.00 | 0.00 | 0.00 | 70 | 1017.6 |
| 20260901012055 | 70 | 158 | 1.0 | 2.0 | 0.00 | 0.00 | 0.00 | 70 | 1017.8 |
| 20260901011015 | 71 | 158 | 1.0 | 3.0 | 0.00 | 0.00 | 0.00 | 69 | 1017.7 |
| 20260901010015 | 71 | 158 | 1.0 | 3.0 | 0.00 | 0.00 | 0.00 | 68 | 1017.7 |
| 20260901005015 | 72 | 180 | 1.0 | 3.0 | 0.00 | 0.00 | 0.00 | 67 | 1017.7 |
| 20260901004015 | 72 | 180 | 1.0 | 2.0 | 0.00 | 0.00 | 0.00 | 65 | 1017.5 |
| 20260901003015 | 72 | 0.0 | 2.0 | 0.00 | 0.00 | 0.00 | 65 | 1017.4 | |
| 20260901002017 | 72 | 0.0 | 2.0 | 0.00 | 0.00 | 0.00 | 64 | 1017.4 | |
| 20260901001017 | 73 | 180 | 1.0 | 3.0 | 0.00 | 0.00 | 0.00 | 64 | 1017.4 |
| 20260901000037 | 73 | 180 | 1.0 | 3.0 | 0.00 | 0.00 | 0.00 | 64 | 1017.3 |
| 20260831235017 | 73 | 0.0 | 2.0 | 0.00 | 0.00 | 0.00 | 63 | 1017.4 |